createdAt,value
2023-04-03T00:01:11.252Z,66.13
2023-04-03T00:04:14.010Z,66.34
2023-04-03T00:07:18.115Z,66.99
2023-04-03T00:10:21.570Z,67.81
2023-04-03T00:13:25.243Z,68.07
2023-04-03T00:16:27.955Z,68.57
2023-04-03T00:19:30.842Z,69.31
2023-04-03T00:22:34.885Z,70.42
2023-04-03T00:25:38.017Z,71.61
2023-04-03T00:28:40.876Z,72.28
2023-04-03T00:31:43.556Z,73.58
2023-04-03T00:34:46.275Z,74.36
2023-04-03T00:37:52.439Z,74.64
2023-04-03T00:40:55.144Z,74.34
2023-04-03T00:43:57.824Z,74.47
2023-04-03T00:47:00.814Z,74.04
2023-04-03T00:50:04.604Z,74.35
2023-04-03T00:53:11.776Z,74.23
2023-04-03T00:56:19.180Z,74.46
2023-04-03T00:59:27.500Z,74.65
2023-04-03T01:02:30.305Z,74.76
2023-04-03T01:05:33.957Z,75.13
2023-04-03T01:08:38.121Z,74.93
2023-04-03T01:11:41.427Z,75.37
2023-04-03T01:14:45.006Z,75.26
2023-04-03T01:17:50.470Z,75.27
2023-04-03T01:21:25.852Z,75.92
2023-04-03T01:24:40.665Z,76.17
2023-04-03T01:27:43.381Z,76.10
2023-04-03T01:30:52.541Z,76.53
2023-04-03T01:33:57.303Z,76.38
2023-04-03T01:37:00.122Z,76.66
2023-04-03T01:40:04.052Z,76.92
2023-04-03T01:43:06.750Z,77.22
2023-04-03T01:46:09.859Z,77.39
2023-04-03T01:49:16.541Z,77.66
2023-04-03T01:52:19.238Z,77.58
2023-04-03T01:55:24.103Z,77.68
2023-04-03T01:58:26.950Z,77.95
2023-04-03T02:01:29.645Z,78.33
2023-04-03T02:04:33.796Z,78.19
2023-04-03T02:07:38.942Z,78.80
2023-04-03T02:10:41.799Z,78.47
2023-04-03T02:13:44.464Z,79.03
2023-04-03T02:16:47.154Z,79.08
2023-04-03T02:19:51.248Z,79.11
2023-04-03T02:22:53.901Z,79.05
2023-04-03T02:26:08.447Z,79.12
2023-04-03T02:29:11.149Z,79.17
2023-04-03T02:32:13.960Z,79.51
2023-04-03T02:35:18.100Z,79.64
2023-04-03T02:38:20.908Z,79.64
2023-04-03T02:41:33.246Z,79.48
2023-04-03T02:44:36.641Z,79.86
2023-04-03T02:47:39.434Z,79.88
2023-04-03T02:50:44.373Z,80.04
2023-04-03T02:53:47.143Z,79.99
2023-04-03T02:56:49.796Z,80.20
2023-04-03T02:59:52.530Z,80.40
2023-04-03T03:02:55.166Z,80.62
2023-04-03T03:06:07.693Z,80.51
2023-04-03T03:09:10.426Z,80.70
2023-04-03T03:12:13.064Z,80.76
2023-04-03T03:15:16.361Z,80.70
2023-04-03T03:18:19.194Z,80.72
2023-04-03T03:21:23.379Z,80.86
2023-04-03T03:24:26.334Z,80.92
2023-04-03T03:27:29.094Z,80.96
2023-04-03T03:30:31.759Z,81.14
2023-04-03T03:33:35.391Z,81.26
2023-04-03T03:36:39.448Z,81.19
2023-04-03T03:39:42.201Z,81.27
2023-04-03T03:42:44.875Z,81.35
2023-04-03T03:45:52.200Z,82.06
2023-04-03T03:48:59.587Z,82.21
2023-04-03T03:52:03.581Z,82.29
2023-04-03T03:55:06.918Z,82.25
2023-04-03T03:58:09.603Z,82.40
2023-04-03T04:01:13.228Z,82.43
2023-04-03T04:04:16.059Z,82.64
2023-04-03T04:07:23.695Z,82.37
2023-04-03T04:10:28.197Z,82.49
2023-04-03T04:13:30.840Z,82.37
2023-04-03T04:16:36.316Z,82.41
2023-04-03T04:19:39.717Z,82.59
2023-04-03T04:22:44.288Z,82.86
2023-04-03T04:25:47.315Z,82.74
2023-04-03T04:28:49.937Z,82.86
2023-04-03T04:31:52.711Z,83.06
2023-04-03T04:34:55.877Z,83.09
2023-04-03T04:38:00.149Z,83.09
2023-04-03T04:41:02.880Z,83.20
2023-04-03T04:44:05.712Z,83.25
2023-04-03T04:47:08.646Z,83.21
2023-04-03T04:50:12.737Z,83.56
2023-04-03T04:53:16.873Z,84.20
2023-04-03T04:56:19.585Z,84.74
2023-04-03T04:59:24.148Z,86.66
2023-04-03T05:02:29.196Z,87.49
2023-04-03T05:05:31.855Z,87.18
2023-04-03T05:08:36.209Z,88.17
2023-04-03T05:11:38.906Z,88.29
2023-04-03T05:14:41.578Z,88.63
2023-04-03T05:17:44.349Z,88.67
2023-04-03T05:20:47.053Z,88.66
2023-04-03T05:23:51.054Z,88.42
2023-04-03T05:26:53.766Z,88.09
2023-04-03T05:29:56.891Z,87.60
2023-04-03T05:33:03.332Z,86.82
2023-04-03T05:36:07.829Z,86.17
2023-04-03T05:39:12.302Z,85.67
2023-04-03T05:42:14.952Z,85.33
2023-04-03T05:45:18.178Z,84.77
2023-04-03T05:48:20.883Z,84.72
2023-04-03T05:51:35.856Z,84.88
2023-04-03T05:54:40.096Z,84.71
2023-04-03T05:57:45.881Z,84.51
2023-04-03T06:00:48.653Z,84.47
2023-04-03T06:03:51.560Z,84.51
2023-04-03T06:06:56.718Z,85.43
2023-04-03T06:10:01.153Z,84.98
2023-04-03T06:13:03.887Z,85.14
2023-04-03T06:16:10.587Z,84.91
2023-04-03T06:19:14.775Z,81.78
2023-04-03T06:22:17.615Z,78.16
2023-04-03T06:25:22.174Z,76.58
2023-04-03T06:28:28.314Z,75.04
2023-04-03T06:31:31.384Z,73.40
2023-04-03T06:34:34.470Z,71.09
2023-04-03T06:37:37.255Z,69.08
2023-04-03T06:40:41.286Z,68.15
2023-04-03T06:43:43.982Z,65.51
2023-04-03T06:46:47.849Z,64.68
2023-04-03T06:49:50.632Z,63.22
2023-04-03T06:52:53.319Z,61.51
2023-04-03T06:55:57.321Z,55.45
2023-04-03T06:59:00.112Z,55.77
2023-04-03T07:02:04.532Z,54.45
2023-04-03T07:05:08.770Z,56.64
2023-04-03T07:08:11.464Z,58.84
2023-04-03T07:11:15.699Z,60.76
2023-04-03T07:14:26.649Z,59.82
2023-04-03T07:17:29.408Z,59.83
2023-04-03T07:20:32.249Z,62.67
2023-04-03T07:23:35.219Z,60.46
2023-04-03T07:26:42.084Z,61.51
2023-04-03T07:29:45.008Z,62.04
2023-04-03T07:32:48.092Z,62.13
2023-04-03T07:35:51.129Z,62.21
2023-04-03T07:38:53.872Z,61.27
2023-04-03T07:41:58.155Z,61.79
2023-04-03T07:45:02.199Z,59.93
2023-04-03T07:48:05.483Z,60.62
2023-04-03T07:51:08.237Z,57.33
2023-04-03T07:54:10.940Z,57.12
2023-04-03T07:57:14.971Z,57.64
2023-04-03T08:00:18.645Z,57.47
2023-04-03T08:03:21.769Z,56.72
2023-04-03T08:06:37.377Z,57.50
2023-04-03T08:09:47.247Z,57.17
2023-04-03T08:12:52.184Z,56.37
2023-04-03T08:15:54.847Z,55.21
2023-04-03T08:18:57.620Z,55.30
2023-04-03T08:22:02.142Z,55.64
2023-04-03T08:25:05.227Z,56.21
2023-04-03T08:28:09.498Z,56.36
2023-04-03T08:31:14.755Z,57.14
2023-04-03T08:34:18.070Z,56.02
2023-04-03T08:37:21.392Z,54.20
2023-04-03T08:40:24.140Z,53.59
2023-04-03T08:43:37.226Z,52.63
2023-04-03T08:46:50.007Z,53.33
2023-04-03T08:49:55.387Z,53.17
2023-04-03T08:52:59.783Z,52.78
2023-04-03T08:56:07.282Z,52.27
2023-04-03T08:59:17.517Z,50.72
2023-04-03T09:02:28.336Z,51.22
2023-04-03T09:05:41.868Z,51.88
2023-04-03T09:08:51.792Z,49.91
2023-04-03T09:12:10.075Z,51.73
2023-04-03T09:15:27.933Z,50.02
2023-04-03T09:18:47.571Z,50.92
2023-04-03T09:21:50.272Z,50.17
2023-04-03T09:25:02.199Z,49.72
2023-04-03T09:28:10.698Z,50.66
2023-04-03T09:31:21.681Z,51.15
2023-04-03T09:34:28.291Z,50.66
2023-04-03T09:37:42.544Z,50.89
2023-04-03T09:40:47.200Z,50.53
2023-04-03T09:43:55.618Z,49.67
2023-04-03T09:46:59.795Z,49.98
2023-04-03T09:50:21.645Z,48.96
2023-04-03T09:53:30.580Z,50.18
2023-04-03T09:56:33.385Z,49.69
2023-04-03T09:59:36.160Z,49.20
2023-04-03T10:02:41.478Z,49.87
2023-04-03T10:05:44.334Z,48.33
2023-04-03T10:09:02.290Z,48.59
2023-04-03T10:12:07.702Z,48.99
2023-04-03T10:15:14.694Z,48.82
2023-04-03T10:18:33.601Z,48.46
2023-04-03T10:21:45.574Z,47.04
2023-04-03T10:24:56.610Z,46.97
2023-04-03T10:28:03.562Z,47.86
2023-04-03T10:31:13.740Z,49.75
2023-04-03T10:34:23.693Z,48.51
2023-04-03T10:37:33.241Z,48.01
2023-04-03T10:40:45.436Z,48.84
2023-04-03T10:43:56.377Z,48.27
2023-04-03T10:47:08.153Z,47.58
2023-04-03T10:50:28.996Z,45.97
2023-04-03T10:53:36.931Z,45.33
2023-04-03T10:56:43.306Z,45.17
2023-04-03T10:59:50.410Z,45.20
2023-04-03T11:02:57.610Z,45.02
2023-04-03T11:06:03.634Z,44.92
2023-04-03T11:09:13.574Z,45.33
2023-04-03T11:12:20.883Z,45.24
2023-04-03T11:15:25.799Z,44.82
2023-04-03T11:18:34.576Z,42.80
2023-04-03T11:21:44.206Z,43.13
2023-04-03T11:24:58.892Z,43.31
2023-04-03T11:28:04.747Z,43.33
2023-04-03T11:31:24.399Z,43.77
2023-04-03T11:34:37.327Z,42.94
2023-04-03T11:37:45.796Z,43.46
2023-04-03T11:40:49.357Z,43.20
2023-04-03T11:43:59.184Z,41.52
2023-04-03T11:47:03.322Z,40.60
2023-04-03T11:50:07.681Z,39.58
2023-04-03T11:53:33.279Z,39.48
2023-04-03T11:56:36.037Z,39.94
2023-04-03T11:59:39.641Z,39.90
2023-04-03T12:02:53.865Z,40.79
2023-04-03T12:05:59.521Z,41.14
2023-04-03T12:09:04.085Z,40.46
2023-04-03T12:12:29.517Z,38.94
2023-04-03T12:15:54.708Z,39.69
2023-04-03T12:19:01.094Z,39.05
2023-04-03T12:22:11.540Z,39.87
2023-04-03T12:25:51.762Z,38.99
2023-04-03T12:28:56.941Z,40.03
2023-04-03T12:32:11.694Z,39.94
2023-04-03T12:35:23.479Z,38.98
2023-04-03T12:38:42.565Z,38.34
2023-04-03T12:41:57.757Z,38.22
2023-04-03T12:45:12.215Z,38.44
2023-04-03T12:48:18.555Z,36.97
2023-04-03T12:51:24.457Z,37.17
2023-04-03T12:54:32.621Z,37.16
2023-04-03T12:57:37.535Z,36.48
2023-04-03T13:00:40.725Z,36.57
2023-04-03T13:03:47.823Z,38.36
2023-04-03T13:06:51.590Z,37.78
2023-04-03T13:10:04.035Z,37.54
2023-04-03T13:13:11.831Z,38.10
2023-04-03T13:16:18.666Z,38.26
2023-04-03T13:19:21.572Z,37.47
2023-04-03T13:22:30.937Z,35.13
2023-04-03T13:25:36.163Z,35.87
2023-04-03T13:28:42.805Z,35.67
2023-04-03T13:31:45.955Z,36.25
2023-04-03T13:34:48.865Z,36.93
2023-04-03T13:37:57.275Z,37.07
2023-04-03T13:41:04.100Z,36.82
2023-04-03T13:44:36.826Z,36.62
2023-04-03T13:47:42.337Z,36.60
2023-04-03T13:51:02.191Z,36.27
2023-04-03T13:54:20.058Z,36.56
2023-04-03T13:57:23.653Z,36.59
2023-04-03T14:00:38.280Z,35.45
2023-04-03T14:03:46.777Z,36.29
2023-04-03T14:06:50.582Z,35.50
2023-04-03T14:09:54.221Z,34.53
2023-04-03T14:12:56.913Z,36.12
2023-04-03T14:16:15.217Z,37.15
2023-04-03T14:19:24.553Z,36.52
2023-04-03T14:22:30.300Z,36.15
2023-04-03T14:25:33.025Z,36.53
2023-04-03T14:28:36.082Z,36.03
2023-04-03T14:31:40.402Z,35.24
2023-04-03T14:34:43.992Z,34.71
2023-04-03T14:37:47.499Z,34.39
2023-04-03T14:40:51.620Z,34.17
2023-04-03T14:43:54.679Z,34.19
2023-04-03T14:46:58.788Z,34.53
2023-04-03T14:50:02.408Z,35.19
2023-04-03T14:53:05.898Z,35.35
2023-04-03T14:56:14.183Z,35.04
2023-04-03T14:59:19.091Z,35.33
2023-04-03T15:02:30.698Z,36.00
2023-04-03T15:05:34.120Z,35.13
2023-04-03T15:08:37.042Z,34.87
2023-04-03T15:11:39.735Z,33.73
2023-04-03T15:14:51.890Z,35.11
2023-04-03T15:17:59.062Z,35.30
2023-04-03T15:21:02.004Z,34.27
2023-04-03T15:24:05.254Z,34.15
2023-04-03T15:27:08.128Z,33.39
2023-04-03T15:30:16.396Z,34.63
2023-04-03T15:33:20.901Z,34.54
2023-04-03T15:39:32.189Z,34.61
2023-04-03T15:42:34.971Z,33.91
2023-04-03T15:45:39.540Z,33.92
2023-04-03T15:48:43.845Z,34.82
2023-04-03T15:51:46.663Z,34.63
2023-04-03T15:54:49.274Z,35.26
2023-04-03T15:57:51.997Z,34.58
2023-04-03T16:00:54.996Z,34.15
2023-04-03T16:03:59.163Z,34.89
2023-04-03T16:07:03.336Z,34.77
2023-04-03T16:10:06.686Z,35.70
2023-04-03T16:13:09.449Z,34.89
2023-04-03T16:16:12.372Z,34.02
2023-04-03T16:19:16.626Z,33.69
2023-04-03T16:22:19.288Z,34.81
2023-04-03T16:25:22.332Z,34.29
2023-04-03T16:28:24.954Z,35.03
2023-04-03T16:31:29.296Z,35.38
2023-04-03T16:34:33.756Z,35.57
2023-04-03T16:37:36.411Z,35.94
2023-04-03T16:40:39.079Z,35.46
2023-04-03T16:46:49.378Z,35.22
2023-04-03T16:49:53.547Z,35.77
2023-04-03T16:52:56.399Z,36.39
2023-04-03T16:55:59.900Z,36.58
2023-04-03T16:59:02.628Z,37.11
2023-04-03T17:02:06.209Z,37.38
2023-04-03T17:05:10.671Z,37.50
2023-04-03T17:08:14.812Z,37.95
2023-04-03T17:11:17.757Z,38.27
2023-04-03T17:14:20.642Z,38.15
2023-04-03T17:17:26.220Z,38.31
2023-04-03T17:20:31.390Z,38.39
2023-04-03T17:23:36.306Z,38.96
2023-04-03T17:26:39.113Z,38.75
2023-04-03T17:29:41.884Z,39.66
2023-04-03T17:32:44.670Z,40.20
2023-04-03T17:35:48.982Z,40.55
2023-04-03T17:38:52.061Z,40.31
2023-04-03T17:41:55.862Z,40.84
2023-04-03T17:44:58.631Z,41.14
2023-04-03T17:48:02.294Z,41.78
2023-04-03T17:51:07.514Z,42.04
2023-04-03T17:54:10.937Z,42.25
2023-04-03T17:57:13.628Z,42.53
2023-04-03T18:00:17.521Z,43.08
2023-04-03T18:03:20.275Z,43.13
2023-04-03T18:06:28.078Z,42.93
2023-04-03T18:09:34.333Z,43.47
2023-04-03T18:12:37.638Z,43.23
2023-04-03T18:15:45.650Z,43.61
2023-04-03T18:18:50.708Z,43.67
2023-04-03T18:22:02.271Z,43.96
2023-04-03T18:25:05.772Z,44.03
2023-04-03T18:28:08.940Z,44.25
2023-04-03T18:31:16.050Z,44.24
2023-04-03T18:34:18.794Z,44.12
2023-04-03T18:37:24.209Z,44.35
2023-04-03T18:40:27.030Z,44.58
2023-04-03T18:43:30.037Z,44.42
2023-04-03T18:46:33.308Z,44.26
2023-04-03T18:49:39.023Z,44.25
2023-04-03T18:52:43.048Z,44.70
2023-04-03T18:55:46.803Z,44.35
2023-04-03T18:58:49.610Z,44.33
2023-04-03T19:01:52.551Z,44.13
2023-04-03T19:04:56.302Z,44.19
2023-04-03T19:08:00.480Z,44.33
2023-04-03T19:11:03.778Z,44.57
2023-04-03T19:14:16.226Z,45.07
2023-04-03T19:17:19.761Z,44.62
2023-04-03T19:20:22.595Z,44.63
2023-04-03T19:23:27.663Z,44.41
2023-04-03T19:26:32.102Z,44.39
2023-04-03T19:29:34.787Z,43.86
2023-04-03T19:32:37.567Z,44.02
2023-04-03T19:35:41.684Z,44.12
2023-04-03T19:38:46.266Z,43.66
2023-04-03T19:41:49.696Z,44.05
2023-04-03T19:44:52.805Z,44.00
2023-04-03T19:47:55.918Z,43.98
2023-04-03T19:50:58.683Z,44.35
2023-04-03T19:54:03.547Z,44.43
2023-04-03T19:57:07.151Z,44.63
2023-04-03T20:00:11.479Z,44.98
2023-04-03T20:03:14.771Z,45.11
2023-04-03T20:06:17.729Z,45.21
2023-04-03T20:09:22.398Z,45.28
2023-04-03T20:12:25.212Z,45.21
2023-04-03T20:15:29.583Z,45.65
2023-04-03T20:18:32.684Z,45.61
2023-04-03T20:21:36.178Z,45.78
2023-04-03T20:24:40.528Z,45.97
2023-04-03T20:27:43.744Z,45.69
2023-04-03T20:30:48.168Z,46.04
2023-04-03T20:33:51.532Z,46.31
2023-04-03T20:36:55.248Z,47.19
2023-04-03T20:39:59.348Z,46.52
2023-04-03T20:43:04.111Z,47.25
2023-04-03T20:46:06.826Z,47.65
2023-04-03T20:49:09.489Z,47.37
2023-04-03T20:52:12.134Z,47.20
2023-04-03T20:55:16.382Z,47.44
2023-04-03T20:58:19.823Z,47.79
2023-04-03T21:01:24.845Z,47.94
2023-04-03T21:04:33.063Z,47.98
2023-04-03T21:08:14.011Z,48.57
2023-04-03T21:11:54.236Z,49.00
2023-04-03T21:15:34.210Z,49.30
2023-04-03T21:18:57.333Z,49.38
2023-04-03T21:22:00.998Z,49.73
2023-04-03T21:25:03.862Z,49.55
2023-04-03T21:28:06.830Z,49.23
2023-04-03T21:31:09.563Z,49.06
2023-04-03T21:34:14.065Z,49.58
2023-04-03T21:37:17.321Z,49.46
2023-04-03T21:40:20.871Z,49.83
2023-04-03T21:43:23.601Z,49.86
2023-04-03T21:46:26.382Z,50.20
2023-04-03T21:49:30.370Z,50.55
2023-04-03T21:52:33.063Z,50.69
2023-04-03T21:55:35.873Z,50.18
2023-04-03T21:58:38.565Z,49.99
2023-04-03T22:01:41.514Z,50.24
2023-04-03T22:04:47.080Z,50.35
2023-04-03T22:07:50.035Z,50.59
2023-04-03T22:10:54.014Z,50.52
2023-04-03T22:13:57.031Z,50.28
2023-04-03T22:17:00.381Z,50.73
2023-04-03T22:20:04.741Z,50.82
2023-04-03T22:23:07.482Z,51.28
2023-04-03T22:26:11.740Z,51.18
2023-04-03T22:29:14.411Z,51.11
2023-04-03T22:32:17.113Z,51.10
2023-04-03T22:35:21.423Z,51.01
2023-04-03T22:38:24.273Z,50.89
2023-04-03T22:41:27.128Z,50.67
2023-04-03T22:44:34.987Z,50.87
2023-04-03T22:47:39.100Z,50.90
2023-04-03T22:50:43.960Z,51.44
2023-04-03T22:53:46.605Z,51.74
2023-04-03T22:56:49.257Z,52.29
2023-04-03T22:59:51.960Z,52.24
2023-04-03T23:02:54.759Z,52.33
2023-04-03T23:05:58.807Z,52.57
2023-04-03T23:09:02.414Z,52.16
2023-04-03T23:12:05.679Z,52.06
2023-04-03T23:15:09.508Z,52.15
2023-04-03T23:18:12.474Z,51.90
2023-04-03T23:21:16.639Z,51.88
2023-04-03T23:24:20.196Z,52.08
2023-04-03T23:27:22.932Z,52.15
2023-04-03T23:30:25.656Z,52.25
2023-04-03T23:33:28.748Z,52.32
2023-04-03T23:36:32.781Z,52.31
2023-04-03T23:39:35.657Z,52.56
2023-04-03T23:42:40.528Z,52.65
2023-04-03T23:45:43.231Z,53.06
2023-04-03T23:48:46.016Z,53.18
2023-04-03T23:51:50.097Z,53.15
2023-04-03T23:54:53.465Z,53.18
2023-04-03T23:57:56.235Z,53.36
